Wetterdaten: Woche 28.07.03 - 03.08.03 (KW31)
Datum Zeit Temperatur Luftfeuchte Luftdruck Regenmenge Wind Richtung Taupunkt Windchill
28.07.2003 00:00 17.3 C 99 % 1020.0 hPa 0.0 l/m 0.5 km/h (0 Bft) W-NW 17.1 C 17.3 C
28.07.2003 01:00 16.7 C 100 % 1020.0 hPa 0.0 l/m 1.0 km/h (0 Bft) O-SO 16.6 C 16.7 C
28.07.2003 02:00 16.7 C 100 % 1020.0 hPa 0.0 l/m 3.2 km/h (1 Bft) W-NW 16.7 C 16.7 C
28.07.2003 03:00 16.7 C 97 % 1020.9 hPa 0.0 l/m 12.0 km/h (2 Bft) NW 16.2 C 16.7 C
28.07.2003 04:00 16.5 C 90 % 1021.1 hPa 0.0 l/m 8.0 km/h (2 Bft) NW 14.9 C 16.5 C
28.07.2003 05:00 15.9 C 93 % 1021.1 hPa 0.0 l/m 9.1 km/h (2 Bft) NW 14.8 C 15.9 C
28.07.2003 06:00 15.7 C 94 % 1021.1 hPa 0.0 l/m 1.8 km/h (1 Bft) NW 14.7 C 15.7 C
28.07.2003 07:00 16.2 C 88 % 1021.9 hPa 0.0 l/m 1.6 km/h (1 Bft) W-NW 14.3 C 16.2 C
28.07.2003 08:00 16.9 C 82 % 1022.1 hPa 0.0 l/m 3.4 km/h (1 Bft) NW 13.9 C 16.9 C
28.07.2003 09:00 17.9 C 76 % 1023.0 hPa 0.0 l/m 6.4 km/h (2 Bft) NW 13.6 C 17.9 C
28.07.2003 10:00 19.2 C 70 % 1023.1 hPa 0.0 l/m 4.4 km/h (1 Bft) O-SO 13.6 C 19.2 C
28.07.2003 11:00 20.2 C 61 % 1023.1 hPa 0.0 l/m 2.4 km/h (1 Bft) W-NW 12.4 C 20.2 C
28.07.2003 12:00 21.3 C 54 % 1023.1 hPa 0.0 l/m 0.9 km/h (0 Bft) N-NO 11.7 C 21.3 C
28.07.2003 13:00 22.6 C 48 % 1023.1 hPa 0.0 l/m 3.6 km/h (1 Bft) O-SO 10.9 C 22.6 C
28.07.2003 14:00 23.4 C 46 % 1023.1 hPa 0.0 l/m 4.0 km/h (1 Bft) O-SO 11.1 C 23.4 C
28.07.2003 15:00 23.4 C 45 % 1023.1 hPa 0.0 l/m 1.2 km/h (1 Bft) NO 10.8 C 23.4 C
28.07.2003 16:00 24.2 C 42 % 1022.7 hPa 0.0 l/m 5.2 km/h (1 Bft) O-SO 10.4 C 24.2 C
28.07.2003 17:00 24.8 C 42 % 1022.1 hPa 0.0 l/m 6.1 km/h (2 Bft) O-SO 11.0 C 24.8 C
28.07.2003 18:00 24.6 C 42 % 1022.1 hPa 0.0 l/m 2.6 km/h (1 Bft) O-SO 11.0 C 24.6 C
28.07.2003 19:00 23.4 C 45 % 1022.1 hPa 0.0 l/m 4.8 km/h (1 Bft) SO 10.9 C 23.4 C
28.07.2003 20:00 21.4 C 55 % 1022.5 hPa 0.0 l/m 1.2 km/h (1 Bft) O-SO 12.0 C 21.4 C
28.07.2003 21:00 18.9 C 67 % 1023.1 hPa 0.0 l/m 6.4 km/h (2 Bft) O-SO 12.6 C 18.9 C
28.07.2003 22:00 18.4 C 71 % 1024.1 hPa 0.0 l/m 1.7 km/h (1 Bft) O-SO 13.1 C 18.4 C
28.07.2003 23:00 18.1 C 74 % 1024.2 hPa 0.0 l/m 0.3 km/h (0 Bft) O-SO 13.5 C 18.1 C
29.07.2003 00:00 18.2 C 65 % 1024.9 hPa 0.0 l/m 0.6 km/h (0 Bft) O 11.5 C 18.2 C
29.07.2003 01:00 17.3 C 70 % 1025.2 hPa 0.0 l/m 4.8 km/h (1 Bft) O-SO 11.7 C 17.3 C
29.07.2003 02:00 16.5 C 75 % 1025.2 hPa 0.0 l/m 2.2 km/h (1 Bft) O-SO 12.0 C 16.5 C
29.07.2003 03:00 15.6 C 82 % 1025.2 hPa 0.0 l/m 1.2 km/h (1 Bft) SO 12.5 C 15.6 C
29.07.2003 04:00 14.5 C 90 % 1025.0 hPa 0.0 l/m 2.9 km/h (1 Bft) O-SO 12.8 C 14.5 C
29.07.2003 05:00 13.6 C 95 % 1025.2 hPa 0.0 l/m 2.4 km/h (1 Bft) O-SO 12.9 C 13.6 C
29.07.2003 06:00 13.2 C 97 % 1025.2 hPa 0.0 l/m 2.4 km/h (1 Bft) O-SO 12.7 C 13.2 C
29.07.2003 07:00 14.1 C 91 % 1025.2 hPa 0.0 l/m 0.0 km/h (0 Bft) N 12.7 C 14.1 C
29.07.2003 08:00 15.8 C 83 % 1025.2 hPa 0.0 l/m 0.5 km/h (0 Bft) SO 12.9 C 15.8 C
29.07.2003 09:00 18.1 C 66 % 1025.2 hPa 0.0 l/m 1.3 km/h (1 Bft) W-NW 11.7 C 18.1 C
29.07.2003 10:00 20.5 C 56 % 1025.2 hPa 0.0 l/m 4.0 km/h (1 Bft) O-SO 11.4 C 20.5 C
29.07.2003 11:00 23.1 C 48 % 1025.2 hPa 0.0 l/m 12.9 km/h (3 Bft) O-SO 11.6 C 23.1 C
29.07.2003 12:00 21.6 C 52 % 1025.2 hPa 0.0 l/m 3.8 km/h (1 Bft) O-SO 11.4 C 21.6 C
29.07.2003 13:00 21.1 C 54 % 1025.2 hPa 0.0 l/m 4.5 km/h (1 Bft) O-SO 11.4 C 21.1 C
29.07.2003 14:00 21.8 C 51 % 1025.1 hPa 0.0 l/m 0.2 km/h (0 Bft) W-NW 11.2 C 21.8 C
29.07.2003 15:00 22.9 C 46 % 1024.4 hPa 0.0 l/m 4.0 km/h (1 Bft) W-NW 10.8 C 22.9 C
29.07.2003 16:00 23.4 C 43 % 1024.2 hPa 0.0 l/m 3.1 km/h (1 Bft) W-NW 10.3 C 23.4 C
29.07.2003 17:00 23.1 C 43 % 1024.2 hPa 0.0 l/m 0.2 km/h (0 Bft) N 9.6 C 23.1 C
29.07.2003 18:00 24.0 C 41 % 1023.2 hPa 0.0 l/m 0.2 km/h (0 Bft) S 9.9 C 24.0 C
29.07.2003 19:00 23.2 C 45 % 1023.1 hPa 0.0 l/m 0.0 km/h (0 Bft) N 10.6 C 23.2 C
29.07.2003 20:00 20.9 C 57 % 1023.1 hPa 0.0 l/m 0.0 km/h (0 Bft) N 11.9 C 20.9 C
29.07.2003 21:00 17.3 C 70 % 1023.1 hPa 0.0 l/m 0.2 km/h (0 Bft) S-SO 11.7 C 17.3 C
29.07.2003 22:00 15.4 C 77 % 1024.1 hPa 0.0 l/m 1.2 km/h (1 Bft) O-SO 11.4 C 15.4 C
29.07.2003 23:00 14.3 C 82 % 1023.6 hPa 0.0 l/m 1.6 km/h (1 Bft) O-SO 11.3 C 14.3 C
30.07.2003 00:00 13.3 C 88 % 1023.1 hPa 0.0 l/m 1.0 km/h (0 Bft) O-SO 11.2 C 13.3 C
30.07.2003 01:00 12.6 C 93 % 1023.1 hPa 0.0 l/m 3.2 km/h (1 Bft) O-SO 11.5 C 12.6 C
30.07.2003 02:00 12.0 C 96 % 1023.1 hPa 0.0 l/m 3.0 km/h (1 Bft) O-SO 11.5 C 12.0 C
30.07.2003 03:00 11.4 C 97 % 1022.3 hPa 0.0 l/m 0.2 km/h (0 Bft) O-SO 10.9 C 11.4 C
30.07.2003 04:00 10.9 C 100 % 1022.1 hPa 0.0 l/m 4.1 km/h (1 Bft) O-SO 10.8 C 10.9 C
30.07.2003 05:00 10.6 C 100 % 1022.1 hPa 0.0 l/m 1.5 km/h (1 Bft) O-SO 10.6 C 10.6 C
30.07.2003 06:00 10.4 C 100 % 1022.1 hPa 0.0 l/m 0.3 km/h (0 Bft) O-SO 10.4 C 10.4 C
30.07.2003 07:00 11.8 C 98 % 1022.1 hPa 0.0 l/m 0.6 km/h (0 Bft) O-SO 11.5 C 11.8 C
30.07.2003 08:00 13.7 C 87 % 1022.1 hPa 0.0 l/m 0.0 km/h (0 Bft) N 11.6 C 13.7 C
30.07.2003 09:00 16.4 C 74 % 1022.1 hPa 0.0 l/m 0.6 km/h (0 Bft) W-NW 11.8 C 16.4 C
30.07.2003 10:00 19.7 C 63 % 1021.6 hPa 0.0 l/m 1.8 km/h (1 Bft) O-SO 12.4 C 19.7 C
30.07.2003 11:00 22.3 C 51 % 1021.1 hPa 0.0 l/m 2.7 km/h (1 Bft) W-NW 11.6 C 22.3 C
30.07.2003 12:00 24.4 C 36 % 1020.6 hPa 0.0 l/m 3.1 km/h (1 Bft) O-SO 8.5 C 24.4 C
30.07.2003 13:00 25.2 C 34 % 1019.4 hPa 0.0 l/m 5.7 km/h (1 Bft) W-NW 8.2 C 25.2 C
30.07.2003 14:00 26.3 C 33 % 1019.0 hPa 0.0 l/m 7.0 km/h (2 Bft) W-NW 8.6 C 26.3 C
30.07.2003 15:00 27.4 C 31 % 1018.2 hPa 0.0 l/m 4.3 km/h (1 Bft) W-NW 8.8 C 27.4 C
30.07.2003 16:00 28.2 C 30 % 1017.8 hPa 0.0 l/m 1.3 km/h (1 Bft) N-NW 8.9 C 28.2 C
30.07.2003 17:00 27.5 C 33 % 1016.9 hPa 0.0 l/m 2.5 km/h (1 Bft) NW 9.8 C 27.5 C
30.07.2003 18:00 27.3 C 37 % 1016.8 hPa 0.0 l/m 0.3 km/h (0 Bft) NW 11.1 C 27.3 C
30.07.2003 19:00 25.9 C 39 % 1015.9 hPa 0.0 l/m 0.0 km/h (0 Bft) N 10.7 C 25.9 C
30.07.2003 20:00 24.9 C 44 % 1015.9 hPa 0.0 l/m 0.4 km/h (0 Bft) O-SO 11.7 C 24.9 C
30.07.2003 21:00 21.3 C 57 % 1015.9 hPa 0.0 l/m 4.7 km/h (1 Bft) O-SO 12.3 C 21.3 C
30.07.2003 22:00 19.5 C 64 % 1015.9 hPa 0.0 l/m 2.3 km/h (1 Bft) O-SO 12.5 C 19.5 C
30.07.2003 23:00 17.8 C 90 % 1015.6 hPa 0.9 l/m 2.4 km/h (1 Bft) O-SO 16.0 C 17.8 C
31.07.2003 00:00 17.2 C 93 % 1016.1 hPa 0.0 l/m 3.7 km/h (1 Bft) W-NW 15.9 C 17.2 C
31.07.2003 01:00 15.7 C 85 % 1017.1 hPa 0.0 l/m 11.5 km/h (2 Bft) NW 13.2 C 15.7 C
31.07.2003 02:00 15.0 C 96 % 1016.9 hPa 0.3 l/m 3.1 km/h (1 Bft) O-SO 14.4 C 15.0 C
31.07.2003 03:00 14.9 C 98 % 1016.7 hPa 1.8 l/m 6.2 km/h (2 Bft) O-SO 14.5 C 14.9 C
31.07.2003 04:00 15.0 C 100 % 1017.7 hPa 0.9 l/m 8.4 km/h (2 Bft) O-SO 14.9 C 15.0 C
31.07.2003 05:00 14.6 C 100 % 1016.9 hPa 0.3 l/m 2.9 km/h (1 Bft) SO 14.6 C 14.6 C
31.07.2003 06:00 14.6 C 100 % 1017.0 hPa 0.0 l/m 1.7 km/h (1 Bft) O-SO 14.6 C 14.6 C
31.07.2003 07:00 15.1 C 99 % 1016.9 hPa 0.0 l/m 0.8 km/h (0 Bft) SO 14.9 C 15.1 C
31.07.2003 08:00 15.8 C 96 % 1017.6 hPa 0.0 l/m 0.0 km/h (0 Bft) N 15.1 C 15.8 C
31.07.2003 09:00 16.2 C 92 % 1018.0 hPa 0.0 l/m 0.1 km/h (0 Bft) N 14.9 C 16.2 C
31.07.2003 10:00 16.9 C 88 % 1017.7 hPa 0.0 l/m 0.3 km/h (0 Bft) W 14.9 C 16.9 C
31.07.2003 11:00 16.8 C 92 % 1018.0 hPa 0.3 l/m 0.1 km/h (0 Bft) SW 15.4 C 16.8 C
31.07.2003 12:00 17.6 C 90 % 1018.0 hPa 0.0 l/m 0.3 km/h (0 Bft) SW 15.9 C 17.6 C
31.07.2003 13:00 18.9 C 78 % 1018.0 hPa 0.0 l/m 0.6 km/h (0 Bft) W-NW 15.0 C 18.9 C
31.07.2003 14:00 21.1 C 66 % 1018.0 hPa 0.0 l/m 1.8 km/h (1 Bft) W-NW 14.5 C 21.1 C
31.07.2003 15:00 23.4 C 54 % 1018.0 hPa 0.0 l/m 1.9 km/h (1 Bft) NW 13.6 C 23.4 C
31.07.2003 16:00 25.6 C 44 % 1017.6 hPa 0.0 l/m 2.5 km/h (1 Bft) NW 12.3 C 25.6 C
31.07.2003 17:00 24.1 C 53 % 1017.5 hPa 0.0 l/m 0.6 km/h (0 Bft) NW 13.8 C 24.1 C
31.07.2003 18:00 23.4 C 57 % 1017.7 hPa 0.0 l/m 7.2 km/h (2 Bft) NW 14.5 C 23.4 C
31.07.2003 19:00 22.9 C 61 % 1017.8 hPa 0.0 l/m 8.7 km/h (2 Bft) W-NW 15.0 C 22.9 C
31.07.2003 20:00 21.3 C 64 % 1018.0 hPa 0.0 l/m 7.9 km/h (2 Bft) W-NW 14.1 C 21.3 C
31.07.2003 21:00 20.0 C 77 % 1018.7 hPa 0.0 l/m 0.5 km/h (0 Bft) W-NW 15.7 C 20.0 C
31.07.2003 22:00 18.9 C 81 % 1019.0 hPa 0.0 l/m 0.0 km/h (0 Bft) N 15.6 C 18.9 C
31.07.2003 23:00 17.0 C 90 % 1019.0 hPa 0.0 l/m 0.6 km/h (0 Bft) O 15.3 C 17.0 C
01.08.2003 00:00 15.9 C 97 % 1019.3 hPa 0.0 l/m 2.7 km/h (1 Bft) O-SO 15.3 C 15.9 C
01.08.2003 01:00 15.0 C 99 % 1020.0 hPa 0.0 l/m 0.0 km/h (0 Bft) O-SO 14.7 C 15.0 C
01.08.2003 02:00 14.5 C 100 % 1019.3 hPa 0.0 l/m 5.3 km/h (1 Bft) O-SO 14.5 C 14.5 C
01.08.2003 03:00 13.9 C 100 % 1019.5 hPa 0.0 l/m 1.0 km/h (0 Bft) O-SO 13.9 C 13.9 C
01.08.2003 04:00 14.0 C 100 % 1019.7 hPa 0.0 l/m 0.0 km/h (0 Bft) N 14.0 C 14.0 C
01.08.2003 05:00 13.8 C 100 % 1019.7 hPa 0.0 l/m 0.0 km/h (0 Bft) N 13.8 C 13.8 C
01.08.2003 06:00 14.5 C 100 % 1020.0 hPa 0.0 l/m 0.0 km/h (0 Bft) N 14.4 C 14.5 C
01.08.2003 07:00 14.8 C 98 % 1020.0 hPa 0.0 l/m 0.2 km/h (0 Bft) S-SW 14.6 C 14.8 C
01.08.2003 08:00 15.8 C 92 % 1020.0 hPa 0.0 l/m 2.3 km/h (1 Bft) W-NW 14.5 C 15.8 C
01.08.2003 09:00 17.8 C 81 % 1020.0 hPa 0.0 l/m 1.3 km/h (1 Bft) W-NW 14.4 C 17.8 C
01.08.2003 10:00 21.0 C 64 % 1020.0 hPa 0.0 l/m 1.4 km/h (1 Bft) W-NW 13.9 C 21.0 C
01.08.2003 11:00 24.0 C 54 % 1020.0 hPa 0.0 l/m 3.7 km/h (1 Bft) SO 14.0 C 24.0 C
01.08.2003 12:00 26.4 C 44 % 1019.8 hPa 0.0 l/m 12.8 km/h (3 Bft) O-SO 13.1 C 26.4 C
01.08.2003 13:00 28.0 C 38 % 1019.0 hPa 0.0 l/m 18.7 km/h (3 Bft) O-SO 12.5 C 28.0 C
01.08.2003 14:00 28.9 C 37 % 1019.0 hPa 0.0 l/m 12.8 km/h (3 Bft) O-SO 12.8 C 28.9 C
01.08.2003 15:00 29.1 C 38 % 1018.2 hPa 0.0 l/m 6.8 km/h (2 Bft) O-SO 13.2 C 29.1 C
01.08.2003 16:00 29.1 C 36 % 1018.0 hPa 0.0 l/m 16.0 km/h (3 Bft) O-SO 12.7 C 29.1 C
01.08.2003 17:00 28.7 C 38 % 1018.0 hPa 0.0 l/m 16.1 km/h (3 Bft) O-SO 12.8 C 28.7 C
01.08.2003 18:00 28.8 C 39 % 1018.0 hPa 0.0 l/m 12.4 km/h (3 Bft) O-SO 13.3 C 28.8 C
01.08.2003 19:00 27.6 C 44 % 1018.0 hPa 0.0 l/m 11.3 km/h (2 Bft) O-SO 14.1 C 27.6 C
01.08.2003 20:00 25.7 C 50 % 1018.2 hPa 0.0 l/m 4.3 km/h (1 Bft) O-SO 14.3 C 25.7 C
01.08.2003 21:00 22.5 C 59 % 1019.0 hPa 0.0 l/m 0.1 km/h (0 Bft) N 13.9 C 22.5 C
01.08.2003 22:00 20.0 C 70 % 1019.0 hPa 0.0 l/m 0.0 km/h (0 Bft) N 14.4 C 20.0 C
01.08.2003 23:00 18.7 C 78 % 1020.0 hPa 0.0 l/m 1.9 km/h (1 Bft) O-SO 14.9 C 18.7 C
02.08.2003 00:00 17.7 C 85 % 1020.0 hPa 0.0 l/m 0.6 km/h (0 Bft) O-SO 15.1 C 17.7 C
02.08.2003 01:00 17.2 C 88 % 1020.0 hPa 0.0 l/m 1.7 km/h (1 Bft) O-SO 15.2 C 17.2 C
02.08.2003 02:00 16.5 C 91 % 1020.0 hPa 0.0 l/m 1.3 km/h (1 Bft) O-SO 15.0 C 16.5 C
02.08.2003 03:00 15.8 C 94 % 1020.0 hPa 0.0 l/m 1.2 km/h (1 Bft) O-SO 14.9 C 15.8 C
02.08.2003 04:00 15.2 C 98 % 1020.0 hPa 0.0 l/m 3.7 km/h (1 Bft) O-SO 14.9 C 15.2 C
02.08.2003 05:00 14.7 C 99 % 1020.0 hPa 0.0 l/m 0.8 km/h (0 Bft) O-SO 14.6 C 14.7 C
02.08.2003 06:00 14.5 C 100 % 1020.0 hPa 0.0 l/m 0.4 km/h (0 Bft) O-SO 14.4 C 14.5 C
02.08.2003 07:00 15.9 C 96 % 1020.7 hPa 0.0 l/m 1.2 km/h (1 Bft) O-SO 15.3 C 15.9 C
02.08.2003 08:00 17.8 C 85 % 1021.1 hPa 0.0 l/m 0.4 km/h (0 Bft) SO 15.3 C 17.8 C
02.08.2003 09:00 20.1 C 73 % 1021.1 hPa 0.0 l/m 0.1 km/h (0 Bft) W-NW 15.1 C 20.1 C
02.08.2003 10:00 23.9 C 57 % 1021.1 hPa 0.0 l/m 3.3 km/h (1 Bft) O-SO 14.9 C 23.9 C
02.08.2003 11:00 26.4 C 49 % 1021.1 hPa 0.0 l/m 11.0 km/h (2 Bft) O-SO 14.6 C 26.4 C
02.08.2003 12:00 28.2 C 44 % 1021.1 hPa 0.0 l/m 12.6 km/h (3 Bft) O-SO 14.8 C 28.2 C
02.08.2003 13:00 30.0 C 40 % 1021.0 hPa 0.0 l/m 17.0 km/h (3 Bft) O-SO 14.8 C 30.0 C
02.08.2003 14:00 31.4 C 38 % 1020.0 hPa 0.0 l/m 19.8 km/h (3 Bft) O-SO 15.4 C 31.4 C
02.08.2003 15:00 31.9 C 38 % 1020.0 hPa 0.0 l/m 19.0 km/h (3 Bft) O-SO 15.7 C 31.9 C
02.08.2003 16:00 32.2 C 37 % 1020.0 hPa 0.0 l/m 24.2 km/h (4 Bft) O-SO 15.7 C 32.2 C
02.08.2003 17:00 32.1 C 38 % 1019.8 hPa 0.0 l/m 16.2 km/h (3 Bft) O-SO 15.7 C 32.1 C
02.08.2003 18:00 31.5 C 38 % 1019.0 hPa 0.0 l/m 16.8 km/h (3 Bft) O-SO 15.5 C 31.5 C
02.08.2003 19:00 30.4 C 41 % 1019.0 hPa 0.0 l/m 13.4 km/h (3 Bft) O-SO 15.7 C 30.4 C
02.08.2003 20:00 28.1 C 47 % 1019.7 hPa 0.0 l/m 3.1 km/h (1 Bft) O-SO 15.5 C 28.1 C
02.08.2003 21:00 24.6 C 56 % 1020.0 hPa 0.0 l/m 1.5 km/h (1 Bft) O-SO 15.2 C 24.6 C
02.08.2003 22:00 22.5 C 67 % 1020.1 hPa 0.0 l/m 3.3 km/h (1 Bft) O-SO 16.0 C 22.5 C
02.08.2003 23:00 21.1 C 74 % 1021.1 hPa 0.0 l/m 1.2 km/h (1 Bft) O-SO 16.4 C 21.1 C
03.08.2003 00:00 19.7 C 80 % 1021.1 hPa 0.0 l/m 1.3 km/h (1 Bft) O-SO 16.1 C 19.7 C
03.08.2003 01:00 18.9 C 85 % 1021.1 hPa 0.0 l/m 0.2 km/h (0 Bft) O-SO 16.3 C 18.9 C
03.08.2003 02:00 18.4 C 87 % 1021.1 hPa 0.0 l/m 2.5 km/h (1 Bft) O-SO 16.2 C 18.4 C
03.08.2003 03:00 17.6 C 90 % 1021.1 hPa 0.0 l/m 1.6 km/h (1 Bft) O-SO 15.9 C 17.6 C
03.08.2003 04:00 17.0 C 94 % 1021.1 hPa 0.0 l/m 0.4 km/h (0 Bft) O-SO 16.1 C 17.0 C
03.08.2003 05:00 16.5 C 98 % 1021.1 hPa 0.0 l/m 2.3 km/h (1 Bft) O-SO 16.2 C 16.5 C
03.08.2003 06:00 16.2 C 100 % 1021.5 hPa 0.0 l/m 0.0 km/h (0 Bft) N 16.2 C 16.2 C
03.08.2003 07:00 17.3 C 96 % 1022.1 hPa 0.0 l/m 0.0 km/h (0 Bft) N 16.5 C 17.3 C
03.08.2003 08:00 19.2 C 84 % 1022.1 hPa 0.0 l/m 0.1 km/h (0 Bft) N 16.4 C 19.2 C
03.08.2003 09:00 21.5 C 73 % 1022.1 hPa 0.0 l/m 0.2 km/h (0 Bft) N 16.4 C 21.5 C
03.08.2003 10:00 24.6 C 60 % 1022.1 hPa 0.0 l/m 0.5 km/h (0 Bft) W-NW 16.3 C 24.6 C
03.08.2003 11:00 27.4 C 49 % 1022.1 hPa 0.0 l/m 1.0 km/h (0 Bft) W-NW 15.8 C 27.4 C
03.08.2003 12:00 30.1 C 42 % 1021.6 hPa 0.0 l/m 4.0 km/h (1 Bft) O-SO 15.9 C 30.1 C
03.08.2003 13:00 32.0 C 37 % 1021.1 hPa 0.0 l/m 4.3 km/h (1 Bft) O 15.5 C 32.0 C
03.08.2003 14:00 33.8 C 32 % 1020.9 hPa 0.0 l/m 5.7 km/h (1 Bft) O-SO 14.7 C 33.8 C
03.08.2003 15:00 35.2 C 28 % 1020.3 hPa 0.0 l/m 9.7 km/h (2 Bft) SO 13.8 C 35.2 C
03.08.2003 16:00 35.2 C 27 % 1020.0 hPa 0.0 l/m 16.9 km/h (3 Bft) O-SO 13.3 C 35.2 C
03.08.2003 17:00 35.1 C 27 % 1020.0 hPa 0.0 l/m 10.4 km/h (2 Bft) O-SO 13.2 C 35.1 C
03.08.2003 18:00 34.4 C 27 % 1020.0 hPa 0.0 l/m 11.1 km/h (2 Bft) O-SO 12.6 C 34.4 C
03.08.2003 19:00 33.0 C 28 % 1020.0 hPa 0.0 l/m 7.3 km/h (2 Bft) O-SO 11.8 C 33.0 C
03.08.2003 20:00 30.3 C 34 % 1020.4 hPa 0.0 l/m 5.3 km/h (1 Bft) O-SO 12.7 C 30.3 C
03.08.2003 21:00 26.3 C 42 % 1021.1 hPa 0.0 l/m 1.6 km/h (1 Bft) O-SO 12.5 C 26.3 C
03.08.2003 22:00 23.0 C 56 % 1021.4 hPa 0.0 l/m 1.0 km/h (0 Bft) SO 13.8 C 23.0 C
03.08.2003 23:00 21.0 C 65 % 1022.1 hPa 0.0 l/m 0.3 km/h (0 Bft) S 14.1 C 21.0 C
Min-Datum _ 30.07.03 03.08.03 30.07.03 - 28.07.03 - 30.07.03 30.07.03
_ Min-Zeit 06:04 14:55 23:13 - 00:03 - 13:37 06:04
Minimum _ 10.1 C 26 % 1014.8 hPa - 0.0 km/h (0 Bft) - 7.2 C 10.1 C
Max-Datum _ 03.08.03 28.07.03 29.07.03 31.07.03 31.07.03 - 28.07.03 03.08.03
_ Max-Zeit 15:43 00:00 00:22 02:00 01:10 - 00:00 15:43
Maximum _ 35.4 C 100 % 1025.2 hPa 1.8 l/m 36.4 km/h
NW (5 Bft)
- 17.8 C 35.4 C
Durchschnitt _ 20.8 C 68 % 1020.7 hPa #4.5 l/m 3.9 km/h (1 Bft) O-SO 13.5 C 20.8 C

Durchschnitt Minimum Temp.19.8 C
Durchschnitt Maximum Temp.21.8 C
© Kaiko 2003